Time;durP1;ratioP1;P1;durP2;ratioP2;P2;SDS_P1;SDS_P2;PMS_P1;PMS_P2;Temp;Humidity;BMP_temperature;BMP_pressure;BME280_temperature;BME280_humidity;BME280_pressure;Samples;Min_cycle;Max_cycle;Signal;HPM_P1;HPM_P2
2020/12/24 00:01:31;;;;;;;8.32;2.30;;;10.20;99.90;;;;;;5013425;28;20192;-74
2020/12/24 00:03:57;;;;;;;4.05;2.05;;;10.20;99.90;;;;;;5016902;28;20464;-75
2020/12/24 00:06:24;;;;;;;5.72;2.45;;;10.20;99.90;;;;;;5013952;28;20206;-74
2020/12/24 00:08:50;;;;;;;6.72;2.10;;;10.20;99.90;;;;;;5019846;28;20340;-74
2020/12/24 00:11:17;;;;;;;4.50;2.10;;;10.20;99.90;;;;;;5012878;28;20202;-74
2020/12/24 00:13:44;;;;;;;3.57;2.57;;;10.20;99.90;;;;;;5020070;28;20197;-75
2020/12/24 00:16:10;;;;;;;9.13;2.20;;;10.20;99.90;;;;;;5018215;28;20448;-72
2020/12/24 00:18:36;;;;;;;5.67;2.03;;;10.20;99.90;;;;;;5021604;28;20248;-73
2020/12/24 00:21:07;;;;;;;7.90;2.72;;;10.20;99.90;;;;;;5014341;28;20464;-73
2020/12/24 00:23:33;;;;;;;6.50;2.93;;;10.20;99.90;;;;;;5014898;28;20763;-73
2020/12/24 00:26:00;;;;;;;9.15;2.35;;;10.10;99.90;;;;;;5017983;28;20587;-75
2020/12/24 00:28:27;;;;;;;8.73;2.65;;;10.20;99.90;;;;;;5019177;28;20194;-75
2020/12/24 00:30:53;;;;;;;8.43;2.58;;;10.20;99.90;;;;;;5018453;28;20205;-73
2020/12/24 00:33:20;;;;;;;6.97;2.45;;;10.20;99.90;;;;;;5022429;28;20201;-74
2020/12/24 00:35:46;;;;;;;9.02;2.50;;;10.20;99.90;;;;;;5018630;28;20204;-75
2020/12/24 00:38:12;;;;;;;5.43;2.50;;;10.20;99.90;;;;;;5014739;28;20222;-72
2020/12/24 00:40:39;;;;;;;6.15;2.25;;;10.20;99.90;;;;;;5021134;28;20222;-75
2020/12/24 00:43:05;;;;;;;8.07;2.20;;;10.20;99.90;;;;;;5016898;28;20201;-74
2020/12/24 00:45:32;;;;;;;5.90;1.92;;;10.20;99.90;;;;;;5017542;28;20202;-76
2020/12/24 00:47:58;;;;;;;11.73;2.78;;;10.20;99.90;;;;;;5023480;28;20202;-74
2020/12/24 00:50:25;;;;;;;9.20;2.50;;;10.20;99.90;;;;;;5017360;28;20283;-74
2020/12/24 00:52:51;;;;;;;6.72;2.67;;;10.20;99.90;;;;;;5020613;28;20472;-75
2020/12/24 00:55:18;;;;;;;4.80;2.40;;;10.20;99.90;;;;;;5022700;28;20206;-75
2020/12/24 00:57:44;;;;;;;8.25;3.20;;;10.20;99.90;;;;;;5022987;28;20208;-74
2020/12/24 01:00:10;;;;;;;15.98;2.63;;;10.20;99.90;;;;;;5017618;28;20745;-75
2020/12/24 01:02:38;;;;;;;9.30;2.53;;;10.20;99.90;;;;;;5015512;28;20198;-74
2020/12/24 01:05:05;;;;;;;6.88;2.60;;;10.20;99.90;;;;;;5020071;28;20464;-76
2020/12/24 01:07:32;;;;;;;4.40;2.30;;;10.20;99.90;;;;;;5020087;28;20661;-73
2020/12/24 01:09:58;;;;;;;11.25;2.40;;;10.20;99.90;;;;;;5020616;28;20203;-76
2020/12/24 01:12:24;;;;;;;7.13;2.83;;;10.20;99.90;;;;;;5016054;28;20201;-76
2020/12/24 01:14:51;;;;;;;7.20;2.65;;;10.10;99.90;;;;;;5018600;28;20503;-76
2020/12/24 01:17:17;;;;;;;10.10;2.60;;;10.20;99.90;;;;;;5016506;28;20198;-75
2020/12/24 01:19:44;;;;;;;6.63;2.40;;;10.20;99.90;;;;;;5020533;28;20226;-75
2020/12/24 01:22:11;;;;;;;12.20;2.95;;;10.10;99.90;;;;;;5019796;28;20304;-76
2020/12/24 01:24:37;;;;;;;7.53;2.47;;;10.10;99.90;;;;;;5020231;28;20201;-76
2020/12/24 01:27:04;;;;;;;9.40;3.30;;;10.10;99.90;;;;;;5014504;28;20193;-74
2020/12/24 01:29:31;;;;;;;4.38;2.30;;;10.10;99.90;;;;;;5018171;28;20555;-75
2020/12/24 01:31:57;;;;;;;11.90;2.90;;;10.10;99.90;;;;;;5019490;28;20195;-75
2020/12/24 01:34:24;;;;;;;6.75;2.40;;;10.10;99.90;;;;;;5012923;28;20204;-76
2020/12/24 01:36:51;;;;;;;5.55;2.20;;;10.10;99.90;;;;;;5016402;28;20208;-74
2020/12/24 01:39:17;;;;;;;6.75;2.58;;;10.10;99.90;;;;;;5016257;28;20234;-74
2020/12/24 01:41:47;;;;;;;8.80;2.95;;;10.10;99.90;;;;;;5018444;28;20229;-75
2020/12/24 01:44:13;;;;;;;8.52;1.95;;;10.10;99.90;;;;;;5012652;28;20198;-74
2020/12/24 01:46:39;;;;;;;9.50;2.33;;;10.10;99.90;;;;;;5022292;28;20217;-76
2020/12/24 01:49:06;;;;;;;7.43;2.37;;;10.10;99.90;;;;;;5020774;28;20201;-74
2020/12/24 01:51:34;;;;;;;6.05;2.33;;;10.10;99.90;;;;;;5015953;28;20710;-74
2020/12/24 01:54:03;;;;;;;6.43;2.20;;;10.10;99.90;;;;;;5017013;28;20233;-76
2020/12/24 01:56:30;;;;;;;4.57;2.45;;;10.10;99.90;;;;;;5020414;28;20547;-76
2020/12/24 01:58:57;;;;;;;6.22;2.50;;;10.00;99.90;;;;;;5018567;28;20252;-74
2020/12/24 02:01:23;;;;;;;6.50;2.45;;;10.00;99.90;;;;;;5013952;28;20202;-75
2020/12/24 02:03:49;;;;;;;7.07;3.27;;;10.10;99.90;;;;;;5016687;28;20197;-74
2020/12/24 02:06:16;;;;;;;13.20;3.03;;;10.00;99.90;;;;;;5023007;28;20451;-75
2020/12/24 02:08:42;;;;;;;12.30;3.03;;;10.10;99.90;;;;;;5018321;28;20194;-74
2020/12/24 02:11:09;;;;;;;9.00;2.60;;;10.10;99.90;;;;;;5018009;28;20194;-76
2020/12/24 02:13:35;;;;;;;10.77;3.10;;;10.10;99.90;;;;;;5019723;28;20213;-75
2020/12/24 02:16:02;;;;;;;2.65;1.95;;;10.10;99.90;;;;;;5020019;28;20662;-74
2020/12/24 02:18:28;;;;;;;9.07;2.65;;;10.10;99.90;;;;;;5016201;28;20194;-74
2020/12/24 02:20:56;;;;;;;10.80;2.95;;;10.10;99.90;;;;;;5013893;28;20233;-76
2020/12/24 02:23:22;;;;;;;11.60;2.50;;;10.10;99.90;;;;;;5017673;28;20642;-74
2020/12/24 02:25:48;;;;;;;8.15;2.20;;;10.10;99.90;;;;;;5020040;28;20206;-74
2020/12/24 02:28:15;;;;;;;7.28;2.70;;;10.10;99.90;;;;;;5019350;28;20534;-75
2020/12/24 02:30:41;;;;;;;4.43;2.15;;;10.00;99.90;;;;;;5013452;28;20191;-76
2020/12/24 02:33:07;;;;;;;10.65;2.75;;;10.00;99.90;;;;;;5018287;28;20208;-75
2020/12/24 02:35:34;;;;;;;3.15;2.85;;;10.00;99.90;;;;;;5020505;28;20197;-74
2020/12/24 02:38:01;;;;;;;8.27;2.30;;;10.00;99.90;;;;;;5021112;28;20202;-74
2020/12/24 02:40:28;;;;;;;5.60;1.70;;;10.00;99.90;;;;;;5021396;28;20993;-74
2020/12/24 02:42:54;;;;;;;4.85;2.42;;;9.90;99.90;;;;;;5023089;28;20248;-75
2020/12/24 02:45:21;;;;;;;5.87;2.10;;;9.90;99.90;;;;;;5017588;28;20300;-75
2020/12/24 02:47:48;;;;;;;5.85;2.30;;;9.90;99.90;;;;;;5022493;28;20526;-75
2020/12/24 02:50:14;;;;;;;6.53;2.80;;;9.90;99.90;;;;;;5021060;28;20216;-76
2020/12/24 02:52:40;;;;;;;6.28;2.38;;;9.90;99.90;;;;;;5011173;28;20206;-75
2020/12/24 02:55:08;;;;;;;7.25;2.55;;;9.90;99.90;;;;;;5024093;28;20201;-75
2020/12/24 02:57:35;;;;;;;8.07;3.45;;;9.90;99.90;;;;;;5023464;28;20197;-74
2020/12/24 03:00:04;;;;;;;7.95;2.58;;;9.90;99.90;;;;;;5019144;28;20284;-76
2020/12/24 03:02:30;;;;;;;7.97;2.38;;;9.90;99.90;;;;;;5021929;28;20206;-75
2020/12/24 03:04:57;;;;;;;2.38;2.17;;;9.90;99.90;;;;;;5020230;28;21048;-74
2020/12/24 03:07:23;;;;;;;8.30;2.30;;;9.90;99.90;;;;;;5020751;28;20223;-75
2020/12/24 03:09:49;;;;;;;7.40;2.55;;;9.90;99.90;;;;;;5016391;28;20289;-74
2020/12/24 03:12:17;;;;;;;8.15;2.97;;;9.90;99.90;;;;;;5019024;28;20198;-75
2020/12/24 03:14:43;;;;;;;4.43;2.55;;;9.90;99.90;;;;;;5017419;28;20216;-75
2020/12/24 03:17:09;;;;;;;10.40;2.88;;;9.90;99.90;;;;;;5023127;28;20198;-75
2020/12/24 03:19:36;;;;;;;9.27;2.15;;;9.90;99.90;;;;;;5022995;28;20779;-76
2020/12/24 03:22:02;;;;;;;6.78;2.10;;;9.90;99.90;;;;;;5022384;28;20202;-74
2020/12/24 03:24:28;;;;;;;12.82;3.00;;;9.90;99.90;;;;;;5020816;28;20252;-74
2020/12/24 03:26:55;;;;;;;6.38;2.80;;;9.90;99.90;;;;;;5021675;28;20229;-75
2020/12/24 03:29:22;;;;;;;5.35;2.55;;;9.90;99.90;;;;;;5020420;28;20194;-74
2020/12/24 03:31:48;;;;;;;7.15;2.50;;;9.90;99.90;;;;;;5022385;28;20655;-74
2020/12/24 03:34:15;;;;;;;10.40;3.17;;;9.90;99.90;;;;;;5021125;28;20205;-76
2020/12/24 03:36:41;;;;;;;9.50;3.10;;;9.90;99.90;;;;;;5018933;28;20199;-74
2020/12/24 03:39:08;;;;;;;4.35;2.17;;;9.90;99.90;;;;;;5018278;28;20481;-74
2020/12/24 03:41:34;;;;;;;6.00;2.42;;;9.90;99.90;;;;;;5022387;28;20234;-75
2020/12/24 03:44:01;;;;;;;6.25;2.30;;;9.90;99.90;;;;;;5018595;28;20202;-76
2020/12/24 03:46:28;;;;;;;7.07;3.35;;;9.90;99.90;;;;;;5020654;28;20240;-76
2020/12/24 03:48:54;;;;;;;9.23;3.13;;;9.90;99.90;;;;;;5018136;28;20255;-74
2020/12/24 03:51:21;;;;;;;6.65;3.00;;;9.90;99.90;;;;;;5016747;28;20199;-76
2020/12/24 03:53:47;;;;;;;3.60;2.15;;;9.90;99.90;;;;;;5021583;28;20312;-74
2020/12/24 03:56:13;;;;;;;5.85;2.40;;;9.90;99.90;;;;;;5025104;28;20358;-75
2020/12/24 03:58:40;;;;;;;8.88;2.88;;;9.90;99.90;;;;;;5020589;28;20636;-75
2020/12/24 04:01:06;;;;;;;6.18;2.50;;;9.90;99.90;;;;;;5017136;28;20194;-76
2020/12/24 04:03:33;;;;;;;8.73;2.72;;;9.90;99.90;;;;;;5021264;28;20202;-75
2020/12/24 04:06:00;;;;;;;5.20;2.40;;;9.90;99.90;;;;;;5024716;28;20752;-74
2020/12/24 04:08:27;;;;;;;7.13;2.22;;;9.90;99.90;;;;;;5021184;28;20198;-75
2020/12/24 04:10:53;;;;;;;9.53;2.30;;;9.90;99.90;;;;;;5017934;28;20214;-74
2020/12/24 04:13:19;;;;;;;4.32;1.98;;;10.00;99.90;;;;;;5020856;28;20472;-74
2020/12/24 04:15:46;;;;;;;5.05;2.40;;;10.00;99.90;;;;;;5019403;28;20194;-76
2020/12/24 04:18:12;;;;;;;3.90;2.80;;;10.00;99.90;;;;;;5020279;28;20209;-75
2020/12/24 04:20:39;;;;;;;4.00;2.47;;;10.00;99.90;;;;;;5021225;28;20226;-74
2020/12/24 04:23:05;;;;;;;5.70;2.17;;;10.00;99.90;;;;;;5017795;28;20206;-75
2020/12/24 04:25:32;;;;;;;8.82;3.88;;;10.00;99.90;;;;;;5021343;28;20460;-75
2020/12/24 04:27:59;;;;;;;16.52;3.30;;;10.00;99.90;;;;;;5013834;28;20709;-74
2020/12/24 04:30:25;;;;;;;12.27;2.13;;;10.00;99.90;;;;;;5021500;28;20227;-76
2020/12/24 04:32:51;;;;;;;8.95;3.03;;;10.00;99.90;;;;;;5019398;28;20194;-75
2020/12/24 04:35:18;;;;;;;9.02;2.90;;;10.10;99.90;;;;;;5017660;28;20194;-76
2020/12/24 04:37:45;;;;;;;5.57;2.72;;;10.00;99.90;;;;;;5018224;28;20206;-75
2020/12/24 04:40:11;;;;;;;7.28;1.90;;;10.10;99.90;;;;;;5021015;28;20217;-74
2020/12/24 04:42:39;;;;;;;4.93;2.35;;;10.00;99.90;;;;;;5020399;28;20232;-76
2020/12/24 04:45:05;;;;;;;5.70;1.95;;;10.10;99.90;;;;;;5017434;28;20206;-75
2020/12/24 04:47:32;;;;;;;8.57;2.70;;;10.10;99.90;;;;;;5015472;28;20205;-74
2020/12/24 04:49:59;;;;;;;2.72;1.75;;;10.10;99.90;;;;;;5017231;28;20202;-74
2020/12/24 04:52:26;;;;;;;6.68;2.92;;;10.00;99.90;;;;;;5015630;28;20220;-75
2020/12/24 04:54:55;;;;;;;7.15;1.90;;;10.10;99.90;;;;;;5017964;28;20689;-74
2020/12/24 04:57:23;;;;;;;2.85;1.60;;;10.00;99.90;;;;;;5018124;28;20623;-74
2020/12/24 04:59:49;;;;;;;5.95;2.35;;;10.00;99.90;;;;;;5018686;28;20228;-75
2020/12/24 05:02:16;;;;;;;10.38;2.35;;;10.10;99.90;;;;;;5024366;28;20204;-76
2020/12/24 05:04:42;;;;;;;14.15;2.47;;;10.00;99.90;;;;;;5011656;28;20265;-76
2020/12/24 05:07:08;;;;;;;5.40;2.25;;;10.00;99.90;;;;;;5012184;28;20194;-74
2020/12/24 05:09:36;;;;;;;3.70;2.20;;;10.00;99.90;;;;;;5012632;28;20195;-74
2020/12/24 05:12:04;;;;;;;7.15;2.45;;;10.00;99.90;;;;;;5018191;28;20194;-76
2020/12/24 05:14:31;;;;;;;2.60;1.73;;;10.00;99.90;;;;;;5017968;28;20194;-75
2020/12/24 05:16:59;;;;;;;6.80;2.13;;;10.00;99.90;;;;;;5018687;28;20558;-75
2020/12/24 05:19:26;;;;;;;3.72;2.05;;;10.00;99.90;;;;;;5013174;28;20236;-75
2020/12/24 05:21:53;;;;;;;4.18;2.17;;;10.00;99.90;;;;;;5018611;28;20212;-75
2020/12/24 05:24:27;;;;;;;5.47;2.10;;;10.00;99.90;;;;;;5015554;28;20275;-76
2020/12/24 05:27:07;;;;;;;2.03;1.83;;;10.00;99.90;;;;;;5008891;28;20201;-74
2020/12/24 05:29:36;;;;;;;2.23;1.53;;;9.90;99.90;;;;;;5016734;28;20202;-74
2020/12/24 05:32:03;;;;;;;6.65;1.88;;;9.90;99.90;;;;;;5020280;28;20931;-75
2020/12/24 05:34:29;;;;;;;5.73;1.90;;;9.90;99.90;;;;;;5015034;28;20202;-75
2020/12/24 05:37:10;;;;;;;8.13;1.90;;;9.90;99.90;;;;;;5020198;28;21030;-75
2020/12/24 05:39:36;;;;;;;4.40;2.17;;;9.90;99.90;;;;;;5013051;28;20252;-75
2020/12/24 05:42:04;;;;;;;3.00;1.63;;;9.90;99.90;;;;;;5015740;28;20488;-76
2020/12/24 05:44:31;;;;;;;4.75;1.73;;;9.80;99.90;;;;;;5015541;28;20202;-75
2020/12/24 05:46:58;;;;;;;4.82;2.03;;;9.90;99.90;;;;;;5018382;28;20355;-74
2020/12/24 05:49:25;;;;;;;7.60;1.83;;;9.80;99.90;;;;;;5019513;28;20669;-75
2020/12/24 05:51:53;;;;;;;2.65;1.40;;;9.90;99.90;;;;;;5021594;28;20938;-75
2020/12/24 05:54:20;;;;;;;4.33;1.83;;;9.90;99.90;;;;;;5017322;28;20205;-75
2020/12/24 05:56:47;;;;;;;2.57;1.70;;;9.90;99.90;;;;;;5019869;28;20486;-75
2020/12/24 05:59:16;;;;;;;5.25;2.15;;;9.90;99.90;;;;;;5016265;28;21066;-74
2020/12/24 06:01:58;;;;;;;4.70;2.25;;;9.90;99.90;;;;;;5014304;28;20205;-74
2020/12/24 06:04:47;;;;;;;10.23;1.95;;;9.90;99.90;;;;;;5019743;28;20199;-75
2020/12/24 06:07:15;;;;;;;5.03;1.95;;;9.90;99.90;;;;;;5011891;28;20197;-75
2020/12/24 06:09:43;;;;;;;1.90;1.35;;;9.90;99.90;;;;;;5017233;28;20285;-75
2020/12/24 06:12:20;;;;;;;2.47;1.77;;;9.90;99.90;;;;;;5021990;28;20206;-75
2020/12/24 06:14:48;;;;;;;2.95;1.30;;;9.90;99.90;;;;;;5016174;28;20215;-76
2020/12/24 06:17:15;;;;;;;2.85;1.80;;;9.90;99.90;;;;;;5019334;28;20256;-74
2020/12/24 06:19:43;;;;;;;3.55;1.90;;;9.80;99.90;;;;;;5023510;28;21058;-74
2020/12/24 06:22:10;;;;;;;2.10;1.45;;;9.80;99.90;;;;;;5015836;28;20194;-75
2020/12/24 06:24:40;;;;;;;4.95;1.67;;;9.80;99.90;;;;;;5016995;28;20202;-74
2020/12/24 06:27:12;;;;;;;4.40;1.80;;;9.90;99.90;;;;;;5019277;28;20206;-75
2020/12/24 06:29:44;;;;;;;4.22;2.05;;;9.80;99.90;;;;;;5022882;28;20644;-74
2020/12/24 06:32:12;;;;;;;3.17;1.50;;;9.80;99.90;;;;;;5022338;28;20209;-76
2020/12/24 06:34:42;;;;;;;2.10;1.60;;;9.90;99.90;;;;;;5021769;28;20198;-75
2020/12/24 06:37:14;;;;;;;3.95;1.60;;;9.80;99.90;;;;;;5019201;28;20229;-74
2020/12/24 06:39:43;;;;;;;2.38;1.60;;;9.90;99.90;;;;;;5022218;28;20218;-73
2020/12/24 06:42:44;;;;;;;5.60;1.95;;;9.90;99.90;;;;;;5025242;28;20329;-74
2020/12/24 06:45:29;;;;;;;2.75;1.67;;;9.90;99.90;;;;;;5023166;28;20567;-74
2020/12/24 06:48:14;;;;;;;2.35;1.45;;;9.90;99.90;;;;;;5016574;28;20208;-74
2020/12/24 06:50:42;;;;;;;3.10;1.80;;;9.80;99.90;;;;;;5011625;28;20202;-75
2020/12/24 06:53:36;;;;;;;3.15;1.35;;;9.80;99.90;;;;;;5019268;28;20647;-74
2020/12/24 06:56:20;;;;;;;4.50;1.45;;;9.80;99.90;;;;;;5016276;28;20332;-76
2020/12/24 06:58:48;;;;;;;2.05;1.45;;;9.90;99.90;;;;;;5022004;28;20591;-74
2020/12/24 07:01:15;;;;;;;2.25;1.75;;;9.90;99.90;;;;;;5018402;28;20367;-75
2020/12/24 07:03:42;;;;;;;2.10;1.63;;;9.90;99.90;;;;;;5021096;28;20469;-75
2020/12/24 07:06:09;;;;;;;5.25;2.22;;;9.90;99.90;;;;;;5020219;28;20194;-74
2020/12/24 07:08:47;;;;;;;2.72;1.40;;;9.90;99.90;;;;;;5021922;28;20271;-75
2020/12/24 07:11:39;;;;;;;2.50;1.75;;;9.90;99.90;;;;;;5019745;28;20200;-74
2020/12/24 07:14:06;;;;;;;5.07;1.50;;;9.90;99.90;;;;;;5018708;28;20206;-74
2020/12/24 07:16:48;;;;;;;5.13;1.87;;;9.90;99.90;;;;;;5016880;28;20290;-74
2020/12/24 07:19:16;;;;;;;2.47;1.65;;;10.00;99.90;;;;;;5017082;28;21081;-74
2020/12/24 07:21:47;;;;;;;4.47;2.30;;;9.90;99.90;;;;;;5020877;28;20194;-74
2020/12/24 07:24:15;;;;;;;2.53;2.20;;;9.90;99.90;;;;;;5020839;28;20189;-75
2020/12/24 07:26:43;;;;;;;2.50;2.30;;;9.90;99.90;;;;;;5019389;28;20654;-73
2020/12/24 07:29:12;;;;;;;5.57;3.58;;;9.90;99.90;;;;;;5013384;28;20209;-75
2020/12/24 07:31:39;;;;;;;4.90;2.90;;;10.00;99.90;;;;;;5017477;28;20605;-75
2020/12/24 07:34:06;;;;;;;4.25;2.30;;;9.90;99.90;;;;;;5017777;28;20190;-75
2020/12/24 07:36:32;;;;;;;5.93;2.35;;;9.90;99.90;;;;;;5019785;28;20193;-74
2020/12/24 07:38:59;;;;;;;2.20;1.95;;;9.90;99.90;;;;;;5018985;28;20727;-74
2020/12/24 07:41:26;;;;;;;5.60;1.97;;;9.90;99.90;;;;;;5018181;28;20257;-76
2020/12/24 07:43:52;;;;;;;4.82;2.40;;;9.90;99.90;;;;;;5011281;28;20461;-74
2020/12/24 07:46:22;;;;;;;3.10;2.05;;;9.90;99.90;;;;;;5019923;28;20537;-75
2020/12/24 07:48:49;;;;;;;7.63;2.40;;;9.90;99.90;;;;;;5019084;28;20202;-75
2020/12/24 07:51:16;;;;;;;3.45;2.10;;;9.90;99.90;;;;;;5016870;28;20569;-74
2020/12/24 07:53:42;;;;;;;8.43;2.65;;;9.90;99.90;;;;;;5023551;28;20202;-73
2020/12/24 07:56:10;;;;;;;25.77;16.02;;;9.90;99.90;;;;;;5021530;28;20197;-75
2020/12/24 07:58:37;;;;;;;9.95;4.72;;;9.90;99.90;;;;;;5017803;28;20528;-74
2020/12/24 08:01:05;;;;;;;9.57;7.05;;;9.90;99.90;;;;;;5017841;28;20223;-75
2020/12/24 08:03:32;;;;;;;9.45;5.18;;;9.90;99.90;;;;;;5017057;28;21713;-75
2020/12/24 08:06:06;;;;;;;6.77;2.93;;;9.90;99.90;;;;;;5018708;28;20289;-76
2020/12/24 08:08:35;;;;;;;4.82;2.70;;;9.90;99.90;;;;;;5022234;28;20460;-74
2020/12/24 08:11:02;;;;;;;7.90;2.20;;;9.90;99.90;;;;;;5018301;28;20194;-74
2020/12/24 08:13:29;;;;;;;4.45;1.88;;;10.00;99.90;;;;;;5016944;28;20213;-74
2020/12/24 08:15:57;;;;;;;3.08;1.80;;;10.00;99.90;;;;;;5020520;28;20678;-74
2020/12/24 08:18:33;;;;;;;4.53;2.00;;;10.00;99.90;;;;;;5017679;28;20651;-75
2020/12/24 08:21:07;;;;;;;4.07;1.77;;;10.00;99.90;;;;;;5020914;28;20304;-74
2020/12/24 08:23:44;;;;;;;5.07;2.60;;;10.00;99.90;;;;;;5015147;28;20780;-74
2020/12/24 08:26:13;;;;;;;3.45;2.10;;;10.00;99.90;;;;;;5020389;28;20658;-75
2020/12/24 08:28:46;;;;;;;3.05;2.42;;;10.00;99.90;;;;;;5015998;28;20201;-75
2020/12/24 08:31:13;;;;;;;3.67;2.40;;;10.00;99.90;;;;;;5020964;28;20211;-74
2020/12/24 08:33:41;;;;;;;4.03;2.35;;;10.00;99.90;;;;;;5016423;28;20221;-73
2020/12/24 08:36:14;;;;;;;7.80;2.10;;;10.00;99.90;;;;;;5019893;28;20304;-74
2020/12/24 08:38:40;;;;;;;2.30;2.10;;;10.00;99.90;;;;;;5018757;28;20457;-74
2020/12/24 08:41:06;;;;;;;6.07;2.10;;;10.00;99.90;;;;;;5020415;28;20245;-74
2020/12/24 08:43:33;;;;;;;5.70;2.88;;;10.00;99.90;;;;;;5013170;28;20212;-75
2020/12/24 08:46:00;;;;;;;3.00;2.80;;;9.90;99.90;;;;;;5015673;28;20216;-75
2020/12/24 08:48:30;;;;;;;2.85;2.65;;;9.70;99.90;;;;;;5017221;28;20693;-74
2020/12/24 08:50:57;;;;;;;3.35;3.15;;;9.50;99.90;;;;;;5012850;28;20199;-75
2020/12/24 08:53:24;;;;;;;5.97;3.05;;;9.30;99.90;;;;;;5017684;28;20202;-75
2020/12/24 08:55:51;;;;;;;3.22;2.92;;;9.20;99.90;;;;;;5017372;28;20324;-74
2020/12/24 08:58:17;;;;;;;16.00;11.20;;;9.10;99.90;;;;;;5014118;28;20198;-74
2020/12/24 09:00:44;;;;;;;9.13;8.15;;;9.00;99.90;;;;;;5014019;28;20235;-75
2020/12/24 09:03:25;;;;;;;11.60;9.10;;;8.90;99.90;;;;;;5022026;28;20197;-75
2020/12/24 09:05:51;;;;;;;3.65;3.35;;;8.70;99.90;;;;;;5014633;28;20375;-73
2020/12/24 09:08:24;;;;;;;5.53;3.72;;;8.70;99.90;;;;;;5017469;28;20226;-74
2020/12/24 09:10:51;;;;;;;5.20;4.70;;;8.60;99.90;;;;;;5018410;28;20259;-72
2020/12/24 09:13:17;;;;;;;5.20;4.80;;;8.60;99.90;;;;;;5019519;28;20640;-74
2020/12/24 09:15:44;;;;;;;6.15;4.93;;;8.50;99.90;;;;;;5016503;28;20193;-73
2020/12/24 09:18:11;;;;;;;5.53;5.03;;;8.40;99.90;;;;;;5019030;28;20188;-74
2020/12/24 09:20:39;;;;;;;5.95;5.43;;;8.40;99.90;;;;;;5018355;28;20231;-75
2020/12/24 09:23:09;;;;;;;5.20;4.80;;;8.30;99.90;;;;;;5022616;28;20231;-76
2020/12/24 09:25:37;;;;;;;7.07;5.55;;;8.20;99.90;;;;;;5021410;28;20210;-73
2020/12/24 09:28:05;;;;;;;5.45;4.95;;;8.10;99.90;;;;;;5018971;28;20208;-75
2020/12/24 09:30:32;;;;;;;6.85;5.00;;;8.00;99.90;;;;;;5019982;28;20202;-73
2020/12/24 09:33:00;;;;;;;7.78;4.97;;;8.00;99.90;;;;;;5011081;28;20208;-75
2020/12/24 09:35:28;;;;;;;5.45;4.95;;;7.90;99.90;;;;;;5013704;28;20694;-74
2020/12/24 09:37:55;;;;;;;4.95;4.45;;;7.80;99.90;;;;;;5018193;28;20219;-73
2020/12/24 09:40:23;;;;;;;5.35;4.93;;;7.70;99.90;;;;;;5022591;28;20228;-75
2020/12/24 09:42:49;;;;;;;4.50;4.10;;;7.70;99.90;;;;;;5019944;28;20215;-73
2020/12/24 09:45:16;;;;;;;4.72;4.43;;;7.70;99.90;;;;;;5022638;28;20208;-73
2020/12/24 09:47:43;;;;;;;5.00;4.30;;;7.70;99.90;;;;;;5023418;28;20198;-73
2020/12/24 09:50:10;;;;;;;4.05;3.65;;;7.60;99.90;;;;;;5024409;28;20194;-74
2020/12/24 09:52:36;;;;;;;4.25;3.95;;;7.50;99.90;;;;;;5025315;28;20195;-73
2020/12/24 09:55:04;;;;;;;5.10;4.70;;;7.60;99.90;;;;;;5026265;28;20295;-75
2020/12/24 09:57:31;;;;;;;3.67;3.40;;;7.60;99.90;;;;;;5023636;28;20642;-75
2020/12/24 10:00:01;;;;;;;4.80;4.40;;;7.60;99.90;;;;;;5024659;28;20269;-74
2020/12/24 10:02:27;;;;;;;4.93;4.22;;;7.60;99.90;;;;;;5027341;28;20192;-73
2020/12/24 10:04:54;;;;;;;3.95;3.55;;;7.50;99.90;;;;;;5022346;28;20194;-73
2020/12/24 10:07:22;;;;;;;6.68;3.90;;;7.50;99.90;;;;;;5026723;28;20190;-72
2020/12/24 10:09:50;;;;;;;3.95;3.60;;;7.50;99.90;;;;;;5028746;28;20211;-73
2020/12/24 10:12:18;;;;;;;9.82;4.00;;;7.50;99.90;;;;;;5023055;28;20190;-74
2020/12/24 10:14:45;;;;;;;8.43;4.97;;;7.50;99.90;;;;;;5023323;28;20338;-73
2020/12/24 10:17:11;;;;;;;5.00;4.60;;;7.50;99.90;;;;;;5026994;28;20647;-74
2020/12/24 10:19:37;;;;;;;5.97;4.85;;;7.60;99.90;;;;;;5025507;28;20224;-73
2020/12/24 10:22:04;;;;;;;6.95;5.22;;;7.60;99.90;;;;;;5019451;28;20204;-73
2020/12/24 10:24:30;;;;;;;8.38;6.15;;;7.60;99.90;;;;;;5024757;28;20205;-73
2020/12/24 10:26:57;;;;;;;5.85;5.35;;;7.60;99.90;;;;;;5023170;28;20194;-75
2020/12/24 10:29:24;;;;;;;7.82;5.78;;;7.60;99.90;;;;;;5021307;28;20203;-74
2020/12/24 10:31:50;;;;;;;6.00;5.40;;;7.60;99.90;;;;;;5027014;28;20198;-73
2020/12/24 10:34:17;;;;;;;10.15;6.20;;;7.60;99.90;;;;;;5022082;28;20210;-73
2020/12/24 10:36:43;;;;;;;5.70;5.20;;;7.60;99.90;;;;;;5022240;28;20215;-73
2020/12/24 10:39:10;;;;;;;6.40;5.18;;;7.60;99.90;;;;;;5025968;28;20602;-72
2020/12/24 10:41:37;;;;;;;5.88;5.38;;;7.50;99.90;;;;;;5026081;28;20231;-74
2020/12/24 10:44:04;;;;;;;14.10;10.43;;;7.50;99.90;;;;;;5019197;28;20203;-75
2020/12/24 10:46:33;;;;;;;6.35;5.70;;;7.60;99.90;;;;;;5027703;28;20207;-73
2020/12/24 10:49:00;;;;;;;6.10;5.50;;;7.60;99.90;;;;;;5019904;28;20197;-73
2020/12/24 10:51:26;;;;;;;6.20;5.60;;;7.60;99.90;;;;;;5021115;28;20206;-74
2020/12/24 10:53:53;;;;;;;5.93;5.30;;;7.60;99.90;;;;;;5025141;28;20198;-74
2020/12/24 10:56:19;;;;;;;7.03;6.00;;;7.60;99.90;;;;;;5024200;28;20251;-75
2020/12/24 10:58:46;;;;;;;6.20;5.60;;;7.60;99.90;;;;;;5014879;28;20324;-73
2020/12/24 11:01:13;;;;;;;5.43;4.45;;;7.70;99.90;;;;;;5016875;28;20223;-74
2020/12/24 11:03:41;;;;;;;5.50;5.00;;;7.60;99.90;;;;;;5018292;28;20199;-74
2020/12/24 11:06:14;;;;;;;6.88;5.18;;;7.60;99.90;;;;;;5013008;28;20200;-73
2020/12/24 11:08:41;;;;;;;4.20;3.85;;;7.50;99.90;;;;;;5012465;28;20245;-74
2020/12/24 11:11:07;;;;;;;3.88;3.58;;;7.50;99.90;;;;;;5020882;28;20251;-74
2020/12/24 11:13:33;;;;;;;2.70;2.60;;;7.40;99.90;;;;;;5025445;28;20205;-74
2020/12/24 11:16:00;;;;;;;3.05;2.75;;;7.30;99.90;;;;;;5017343;28;20218;-73
2020/12/24 11:18:26;;;;;;;2.90;2.70;;;7.20;99.90;;;;;;5021395;28;20210;-73
2020/12/24 11:20:55;;;;;;;2.45;2.28;;;7.20;99.90;;;;;;5018144;28;20234;-75
2020/12/24 11:23:21;;;;;;;2.70;2.50;;;7.20;99.90;;;;;;5022944;28;20345;-74
2020/12/24 11:25:48;;;;;;;2.20;2.10;;;7.20;99.90;;;;;;5022384;28;20210;-72
2020/12/24 11:28:14;;;;;;;2.45;2.35;;;7.20;99.90;;;;;;5024606;28;20205;-73
2020/12/24 11:30:41;;;;;;;2.80;2.40;;;7.20;99.90;;;;;;5021678;28;20203;-74
2020/12/24 11:33:07;;;;;;;2.92;2.72;;;7.10;99.90;;;;;;5021705;28;20195;-72
2020/12/24 11:35:33;;;;;;;2.33;2.22;;;7.20;99.90;;;;;;5024349;28;20237;-73
2020/12/24 11:38:01;;;;;;;2.92;2.72;;;7.20;99.90;;;;;;5023998;28;20192;-75
2020/12/24 11:40:27;;;;;;;2.78;2.40;;;7.20;99.90;;;;;;5021820;28;20233;-74
2020/12/24 11:42:53;;;;;;;2.83;2.63;;;7.20;99.90;;;;;;5019248;28;20237;-75
2020/12/24 11:45:20;;;;;;;2.22;2.13;;;7.20;99.90;;;;;;5019157;28;20195;-73
2020/12/24 11:47:47;;;;;;;2.95;2.75;;;7.20;99.90;;;;;;5023638;28;20192;-73
2020/12/24 11:50:13;;;;;;;2.95;2.75;;;7.20;99.90;;;;;;5021938;28;20207;-72
2020/12/24 11:52:40;;;;;;;6.03;3.10;;;7.20;99.90;;;;;;5025904;28;20199;-74
2020/12/24 11:55:08;;;;;;;3.08;2.88;;;7.20;99.90;;;;;;5021736;28;20226;-72
2020/12/24 11:57:37;;;;;;;3.60;3.30;;;7.20;99.90;;;;;;5020385;28;20191;-72
2020/12/24 12:00:05;;;;;;;3.47;3.17;;;7.20;99.90;;;;;;5027764;28;20602;-74
2020/12/24 12:02:32;;;;;;;3.67;2.90;;;7.10;99.90;;;;;;5024343;28;20245;-73
2020/12/24 12:04:58;;;;;;;5.32;2.72;;;7.10;99.90;;;;;;5020951;28;20203;-72
2020/12/24 12:07:25;;;;;;;4.43;3.50;;;7.10;99.90;;;;;;5022146;28;20202;-75
2020/12/24 12:09:51;;;;;;;3.55;3.15;;;7.10;99.90;;;;;;5022876;28;20230;-74
2020/12/24 12:12:18;;;;;;;3.38;3.17;;;7.10;99.90;;;;;;5020875;28;20252;-72
2020/12/24 12:14:44;;;;;;;6.22;4.82;;;7.10;99.90;;;;;;5023490;28;20191;-74
2020/12/24 12:17:12;;;;;;;6.90;5.82;;;7.10;99.90;;;;;;5020118;28;20209;-73
2020/12/24 12:19:38;;;;;;;26.65;19.17;;;7.10;99.90;;;;;;5021542;28;20560;-72
2020/12/24 12:22:05;;;;;;;3.88;3.55;;;7.10;99.90;;;;;;5027059;28;20531;-74
2020/12/24 12:24:31;;;;;;;3.30;3.10;;;7.10;99.90;;;;;;5022196;28;20196;-74
2020/12/24 12:26:58;;;;;;;2.92;2.63;;;7.10;99.90;;;;;;5022769;28;20193;-72
2020/12/24 12:29:25;;;;;;;4.13;3.72;;;7.10;99.90;;;;;;5021347;28;20650;-72
2020/12/24 12:31:52;;;;;;;3.25;3.00;;;7.20;99.90;;;;;;5025027;28;20634;-72
2020/12/24 12:34:18;;;;;;;4.85;3.53;;;7.20;99.90;;;;;;5022779;28;20558;-75
2020/12/24 12:36:46;;;;;;;3.58;3.15;;;7.20;99.90;;;;;;5026294;28;20594;-72
2020/12/24 12:39:12;;;;;;;3.80;3.55;;;7.20;99.90;;;;;;5020232;28;20654;-72
2020/12/24 12:41:39;;;;;;;4.13;3.72;;;7.20;99.90;;;;;;5023111;28;20265;-73
2020/12/24 12:44:05;;;;;;;6.25;4.68;;;7.20;99.90;;;;;;5024312;28;20217;-72
2020/12/24 12:46:32;;;;;;;5.75;4.32;;;7.20;99.90;;;;;;5028199;28;20202;-72
2020/12/24 12:48:59;;;;;;;3.40;3.10;;;7.30;99.90;;;;;;5024604;28;20208;-74
2020/12/24 12:51:26;;;;;;;4.63;3.65;;;7.30;99.90;;;;;;5019988;28;20191;-73
2020/12/24 12:53:52;;;;;;;3.65;3.35;;;7.30;99.90;;;;;;5023260;28;20228;-71
2020/12/24 12:56:22;;;;;;;3.42;3.15;;;7.30;99.90;;;;;;5025451;28;20965;-74